TRA061 EHAM-EDXW
Flight info
| Callsign | TRA061 |
|---|---|
| Flight time | 0h 44m |
| Altitude | 31000 |
| Route | ANDIK N873 HUNQI DCT ROCZO DCT OLDIP |
| Aircraft | A320/M-SDE3FGHIRWY/LB1 |
Departure
| Time | 2026-04-29 11:18 |
|---|---|
| Airport | Amsterdam Airport Schiphol (EHAM) |
Arrival
| Time | 2026-04-29 12:03 |
|---|---|
| Airport | Westerland Sylt Airport (EDXW) |
| Time | Latitude | Longitude | Altitude | Speed | Heading |
|---|---|---|---|---|---|
| 2026-04-29 10:47 | 52.30312 | 4.76220 | -2 ft | 0 kts | 57° |
| 2026-04-29 11:01 | 52.30311 | 4.76218 | -2 ft | 2 kts | 57° |
| 2026-04-29 11:01 | 52.30303 | 4.76195 | -2 ft | 2 kts | 72° |
| 2026-04-29 11:02 | 52.30302 | 4.76168 | -2 ft | 2 kts | 135° |
| 2026-04-29 11:02 | 52.30311 | 4.76155 | -2 ft | 1 kts | 148° |
| 2026-04-29 11:02 | 52.30312 | 4.76155 | -2 ft | 0 kts | 148° |
| 2026-04-29 11:03 | 52.30307 | 4.76160 | -2 ft | 6 kts | 148° |
| 2026-04-29 11:03 | 52.30251 | 4.76216 | -2 ft | 11 kts | 148° |
| 2026-04-29 11:03 | 52.30243 | 4.76224 | -2 ft | 0 kts | 148° |
| 2026-04-29 11:04 | 52.30219 | 4.76243 | -2 ft | 15 kts | 162° |
| 2026-04-29 11:04 | 52.30123 | 4.76069 | -2 ft | 23 kts | 241° |
| 2026-04-29 11:04 | 52.30030 | 4.75831 | -2 ft | 27 kts | 237° |
| 2026-04-29 11:04 | 52.29921 | 4.75547 | -2 ft | 32 kts | 238° |
| 2026-04-29 11:05 | 52.29833 | 4.75251 | -2 ft | 27 kts | 276° |
| 2026-04-29 11:05 | 52.29936 | 4.75017 | -2 ft | 22 kts | 311° |
| 2026-04-29 11:05 | 52.30037 | 4.74831 | -2 ft | 24 kts | 311° |
| 2026-04-29 11:05 | 52.30149 | 4.74623 | -2 ft | 26 kts | 310° |
| 2026-04-29 11:06 | 52.30281 | 4.74378 | -2 ft | 31 kts | 311° |
| 2026-04-29 11:06 | 52.30446 | 4.74193 | -2 ft | 30 kts | 356° |
| 2026-04-29 11:06 | 52.30605 | 4.74207 | -2 ft | 20 kts | 4° |
| 2026-04-29 11:06 | 52.30757 | 4.74221 | -2 ft | 24 kts | 1° |
| 2026-04-29 11:07 | 52.30909 | 4.74235 | -2 ft | 22 kts | 4° |
| 2026-04-29 11:07 | 52.31079 | 4.74252 | -2 ft | 27 kts | 3° |
| 2026-04-29 11:07 | 52.31277 | 4.74269 | -2 ft | 29 kts | 3° |
| 2026-04-29 11:07 | 52.31470 | 4.74287 | -2 ft | 23 kts | 3° |
| 2026-04-29 11:08 | 52.31644 | 4.74303 | 1 ft | 26 kts | 3° |
| 2026-04-29 11:08 | 52.31833 | 4.74322 | -5 ft | 29 kts | 3° |
| 2026-04-29 11:08 | 52.32008 | 4.74315 | -6 ft | 22 kts | 326° |
| 2026-04-29 11:08 | 52.32033 | 4.74134 | -5 ft | 17 kts | 273° |
| 2026-04-29 11:09 | 52.32039 | 4.73956 | -3 ft | 16 kts | 274° |
| 2026-04-29 11:09 | 52.32045 | 4.73810 | 0 ft | 13 kts | 274° |
| 2026-04-29 11:09 | 52.32052 | 4.73642 | 1 ft | 17 kts | 273° |
| 2026-04-29 11:09 | 52.32058 | 4.73503 | 2 ft | 20 kts | 274° |
| 2026-04-29 11:10 | 52.32131 | 4.73298 | 0 ft | 24 kts | 319° |
| 2026-04-29 11:10 | 52.32239 | 4.73143 | -2 ft | 21 kts | 319° |
| 2026-04-29 11:10 | 52.32369 | 4.72960 | -3 ft | 27 kts | 319° |
| 2026-04-29 11:10 | 52.32509 | 4.72763 | -3 ft | 26 kts | 319° |
| 2026-04-29 11:11 | 52.32653 | 4.72559 | -1 ft | 25 kts | 317° |
| 2026-04-29 11:11 | 52.32757 | 4.72375 | 0 ft | 23 kts | 311° |
| 2026-04-29 11:11 | 52.32870 | 4.72164 | -2 ft | 28 kts | 311° |
| 2026-04-29 11:11 | 52.33010 | 4.71909 | -2 ft | 32 kts | 312° |
| 2026-04-29 11:12 | 52.33120 | 4.71702 | -1 ft | 24 kts | 310° |
| 2026-04-29 11:12 | 52.33126 | 4.71480 | -1 ft | 17 kts | 228° |
| 2026-04-29 11:12 | 52.33025 | 4.71339 | -2 ft | 20 kts | 220° |
| 2026-04-29 11:12 | 52.32957 | 4.71239 | -2 ft | 6 kts | 222° |
| 2026-04-29 11:13 | 52.32956 | 4.71237 | -2 ft | 0 kts | 222° |
| 2026-04-29 11:13 | 52.32953 | 4.71233 | -2 ft | 2 kts | 222° |
| 2026-04-29 11:13 | 52.32928 | 4.71196 | -2 ft | 8 kts | 222° |
| 2026-04-29 11:14 | 52.32878 | 4.71108 | -3 ft | 14 kts | 239° |
| 2026-04-29 11:14 | 52.32866 | 4.71034 | -4 ft | 0 kts | 264° |
| 2026-04-29 11:15 | 52.32866 | 4.71033 | -4 ft | 0 kts | 264° |
| 2026-04-29 11:15 | 52.32866 | 4.71030 | -4 ft | 1 kts | 264° |
| 2026-04-29 11:16 | 52.32869 | 4.70948 | -4 ft | 15 kts | 283° |
| 2026-04-29 11:16 | 52.32902 | 4.70889 | -3 ft | 0 kts | 357° |
| 2026-04-29 11:16 | 52.32903 | 4.70889 | -3 ft | 0 kts | 360° |
| 2026-04-29 11:17 | 52.32906 | 4.70889 | -4 ft | 3 kts | 0° |
| 2026-04-29 11:18 | 52.33000 | 4.70896 | -6 ft | 28 kts | 3° |
| 2026-04-29 11:18 | 52.33452 | 4.70942 | -3 ft | 108 kts | 5° |
| 2026-04-29 11:18 | 52.34433 | 4.71028 | 116 ft | 162 kts | 8° |
| 2026-04-29 11:18 | 52.35596 | 4.71071 | 885 ft | 179 kts | 8° |
| 2026-04-29 11:19 | 52.36925 | 4.71204 | 1692 ft | 204 kts | 9° |
| 2026-04-29 11:19 | 52.38431 | 4.71378 | 2561 ft | 230 kts | 9° |
| 2026-04-29 11:19 | 52.40097 | 4.71565 | 3534 ft | 249 kts | 11° |
| 2026-04-29 11:19 | 52.41886 | 4.71754 | 4546 ft | 266 kts | 10° |
| 2026-04-29 11:20 | 52.43775 | 4.71942 | 5549 ft | 277 kts | 9° |
| 2026-04-29 11:20 | 52.45734 | 4.72131 | 6564 ft | 286 kts | 8° |
| 2026-04-29 11:20 | 52.47718 | 4.72317 | 7529 ft | 293 kts | 8° |
| 2026-04-29 11:20 | 52.49768 | 4.72507 | 8520 ft | 297 kts | 7° |
| 2026-04-29 11:21 | 52.51812 | 4.72891 | 9535 ft | 294 kts | 19° |
| 2026-04-29 11:21 | 52.53635 | 4.74310 | 10551 ft | 289 kts | 39° |
| 2026-04-29 11:21 | 52.54998 | 4.76668 | 11505 ft | 285 kts | 59° |
| 2026-04-29 11:21 | 52.55783 | 4.79632 | 12494 ft | 283 kts | 73° |
| 2026-04-29 11:22 | 52.56359 | 4.82709 | 13515 ft | 281 kts | 73° |
| 2026-04-29 11:22 | 52.56932 | 4.85764 | 14534 ft | 278 kts | 72° |
| 2026-04-29 11:22 | 52.57501 | 4.88783 | 15472 ft | 275 kts | 72° |
| 2026-04-29 11:22 | 52.58069 | 4.91752 | 16445 ft | 269 kts | 70° |
| 2026-04-29 11:23 | 52.58782 | 4.94550 | 17455 ft | 262 kts | 62° |
| 2026-04-29 11:23 | 52.59687 | 4.97084 | 18501 ft | 252 kts | 55° |
| 2026-04-29 11:23 | 52.60725 | 4.99330 | 19443 ft | 240 kts | 51° |
| 2026-04-29 11:23 | 52.61756 | 5.01466 | 20148 ft | 240 kts | 52° |
| 2026-04-29 11:24 | 52.62795 | 5.03626 | 20719 ft | 242 kts | 52° |
| 2026-04-29 11:24 | 52.63843 | 5.05814 | 21298 ft | 245 kts | 52° |
| 2026-04-29 11:24 | 52.64913 | 5.08055 | 21740 ft | 253 kts | 52° |
| 2026-04-29 11:24 | 52.66018 | 5.10369 | 22191 ft | 261 kts | 53° |
| 2026-04-29 11:25 | 52.67158 | 5.12763 | 22645 ft | 270 kts | 53° |
| 2026-04-29 11:25 | 52.68333 | 5.15235 | 23107 ft | 278 kts | 53° |
| 2026-04-29 11:25 | 52.69543 | 5.17780 | 23576 ft | 286 kts | 53° |
| 2026-04-29 11:25 | 52.70784 | 5.20396 | 24038 ft | 293 kts | 53° |
| 2026-04-29 11:26 | 52.73358 | 5.25826 | 24849 ft | 307 kts | 53° |
| 2026-04-29 11:26 | 52.74705 | 5.28662 | 25009 ft | 323 kts | 53° |
| 2026-04-29 11:26 | 52.76130 | 5.31670 | 25041 ft | 341 kts | 53° |
| 2026-04-29 11:27 | 52.77630 | 5.34847 | 25046 ft | 360 kts | 53° |
| 2026-04-29 11:27 | 52.79210 | 5.38198 | 25046 ft | 378 kts | 53° |
| 2026-04-29 11:27 | 52.80854 | 5.41687 | 25042 ft | 389 kts | 53° |
| 2026-04-29 11:27 | 52.82521 | 5.45225 | 25038 ft | 392 kts | 53° |
| 2026-04-29 11:28 | 52.84201 | 5.48789 | 25153 ft | 395 kts | 53° |
| 2026-04-29 11:28 | 52.85895 | 5.52384 | 25635 ft | 397 kts | 53° |
| 2026-04-29 11:28 | 52.87594 | 5.55996 | 26125 ft | 399 kts | 53° |
| 2026-04-29 11:28 | 52.89297 | 5.59627 | 26607 ft | 399 kts | 53° |
| 2026-04-29 11:29 | 52.91001 | 5.63270 | 27080 ft | 400 kts | 53° |
| 2026-04-29 11:29 | 52.92705 | 5.66920 | 27506 ft | 402 kts | 53° |
| 2026-04-29 11:29 | 52.94418 | 5.70595 | 27901 ft | 404 kts | 53° |
| 2026-04-29 11:29 | 52.96137 | 5.74293 | 28314 ft | 405 kts | 53° |
| 2026-04-29 11:30 | 52.97824 | 5.77936 | 28845 ft | 403 kts | 53° |
| 2026-04-29 11:30 | 52.99527 | 5.81613 | 29382 ft | 401 kts | 53° |
| 2026-04-29 11:30 | 53.01245 | 5.85321 | 29935 ft | 399 kts | 53° |
| 2026-04-29 11:30 | 53.02935 | 5.88963 | 30477 ft | 397 kts | 53° |
| 2026-04-29 11:31 | 53.04595 | 5.92544 | 30908 ft | 396 kts | 53° |
| 2026-04-29 11:31 | 53.06271 | 5.96175 | 31035 ft | 395 kts | 54° |
| 2026-04-29 11:31 | 53.09605 | 6.03422 | 31062 ft | 394 kts | 54° |
| 2026-04-29 11:32 | 53.12930 | 6.10671 | 31065 ft | 394 kts | 53° |
| 2026-04-29 11:32 | 53.16247 | 6.17911 | 31067 ft | 392 kts | 53° |
| 2026-04-29 11:33 | 53.19543 | 6.25126 | 31075 ft | 391 kts | 53° |
| 2026-04-29 11:33 | 53.22834 | 6.32349 | 31079 ft | 391 kts | 53° |
| 2026-04-29 11:34 | 53.26116 | 6.39592 | 31083 ft | 391 kts | 53° |
| 2026-04-29 11:34 | 53.29397 | 6.46841 | 31093 ft | 391 kts | 53° |
| 2026-04-29 11:35 | 53.32677 | 6.54105 | 31097 ft | 391 kts | 53° |
| 2026-04-29 11:35 | 53.36206 | 6.61026 | 31083 ft | 393 kts | 44° |
| 2026-04-29 11:36 | 53.40230 | 6.67201 | 31090 ft | 393 kts | 44° |
| 2026-04-29 11:36 | 53.44252 | 6.73398 | 31124 ft | 392 kts | 44° |
| 2026-04-29 11:37 | 53.48255 | 6.79585 | 31119 ft | 391 kts | 44° |
| 2026-04-29 11:37 | 53.52247 | 6.85765 | 31113 ft | 390 kts | 44° |
| 2026-04-29 11:38 | 53.56230 | 6.91938 | 31101 ft | 390 kts | 44° |
| 2026-04-29 11:38 | 53.60319 | 6.97934 | 31096 ft | 390 kts | 41° |
| 2026-04-29 11:39 | 53.64507 | 7.03754 | 31100 ft | 390 kts | 41° |
| 2026-04-29 11:39 | 53.68685 | 7.09595 | 31097 ft | 390 kts | 41° |
| 2026-04-29 11:40 | 53.72835 | 7.15511 | 31098 ft | 390 kts | 42° |
| 2026-04-29 11:40 | 53.76969 | 7.21456 | 31100 ft | 390 kts | 42° |
| 2026-04-29 11:41 | 53.81094 | 7.27436 | 31100 ft | 391 kts | 42° |
| 2026-04-29 11:41 | 53.85212 | 7.33427 | 31106 ft | 391 kts | 42° |
| 2026-04-29 11:42 | 53.88974 | 7.40038 | 31130 ft | 389 kts | 48° |
| 2026-04-29 11:42 | 53.92573 | 7.46878 | 31135 ft | 388 kts | 48° |
| 2026-04-29 11:43 | 53.96160 | 7.53707 | 31136 ft | 387 kts | 48° |
| 2026-04-29 11:43 | 53.99733 | 7.60539 | 31129 ft | 387 kts | 49° |
| 2026-04-29 11:44 | 54.03305 | 7.67388 | 31126 ft | 387 kts | 48° |
| 2026-04-29 11:44 | 54.06869 | 7.74236 | 31121 ft | 387 kts | 48° |
| 2026-04-29 11:45 | 54.10429 | 7.81105 | 31119 ft | 387 kts | 48° |
| 2026-04-29 11:45 | 54.13987 | 7.87987 | 31117 ft | 387 kts | 49° |
| 2026-04-29 11:46 | 54.17573 | 7.94772 | 31120 ft | 387 kts | 46° |
| 2026-04-29 11:46 | 54.21400 | 8.01241 | 31144 ft | 387 kts | 44° |
| 2026-04-29 11:47 | 54.25267 | 8.07614 | 31136 ft | 386 kts | 44° |
| 2026-04-29 11:47 | 54.29099 | 8.14052 | 31135 ft | 386 kts | 45° |
| 2026-04-29 11:48 | 54.32902 | 8.20539 | 31132 ft | 386 kts | 45° |
| 2026-04-29 11:48 | 54.36697 | 8.27052 | 31131 ft | 386 kts | 45° |
| 2026-04-29 11:49 | 54.40489 | 8.33577 | 31128 ft | 386 kts | 45° |
| 2026-04-29 11:49 | 54.44279 | 8.40104 | 31125 ft | 386 kts | 45° |
| 2026-04-29 11:50 | 54.48071 | 8.46635 | 31117 ft | 386 kts | 45° |
| 2026-04-29 11:50 | 54.51869 | 8.53185 | 31118 ft | 387 kts | 45° |
| 2026-04-29 11:51 | 54.55660 | 8.59756 | 31120 ft | 387 kts | 45° |
| 2026-04-29 11:51 | 54.59442 | 8.66342 | 31145 ft | 386 kts | 45° |
| 2026-04-29 11:52 | 54.63189 | 8.72895 | 31110 ft | 383 kts | 45° |
| 2026-04-29 11:52 | 54.46646 | 8.47566 | 31264 ft | 381 kts | 45° |
| 2026-04-29 11:52 | 54.35750 | 8.28949 | 30903 ft | 23031 kts | 45° |
| 2026-04-29 11:53 | 54.33683 | 8.25419 | 28854 ft | 0 kts | 45° |
| 2026-04-29 11:53 | 54.34987 | 8.27647 | 19899 ft | 398 kts | 45° |
| 2026-04-29 11:53 | 54.36955 | 8.31004 | 18393 ft | 397 kts | 45° |
| 2026-04-29 11:53 | 54.38887 | 8.34308 | 16799 ft | 388 kts | 45° |
| 2026-04-29 11:54 | 54.40779 | 8.37553 | 15285 ft | 382 kts | 45° |
| 2026-04-29 11:54 | 54.42644 | 8.40760 | 13776 ft | 378 kts | 45° |
| 2026-04-29 11:54 | 54.44457 | 8.43893 | 12212 ft | 351 kts | 45° |
| 2026-04-29 11:54 | 54.46076 | 8.46710 | 10716 ft | 314 kts | 45° |
| 2026-04-29 11:55 | 54.47545 | 8.49294 | 9135 ft | 292 kts | 45° |
| 2026-04-29 11:55 | 54.48472 | 8.50916 | 8113 ft | 282 kts | 45° |
| 2026-04-29 11:55 | 54.49828 | 8.53252 | 6574 ft | 270 kts | 45° |
| 2026-04-29 11:55 | 54.51145 | 8.55478 | 4999 ft | 261 kts | 45° |
| 2026-04-29 11:56 | 54.52421 | 8.57589 | 3921 ft | 241 kts | 45° |
| 2026-04-29 11:56 | 54.53543 | 8.59409 | 3503 ft | 202 kts | 45° |
| 2026-04-29 11:56 | 54.54484 | 8.60910 | 3303 ft | 175 kts | 45° |
| 2026-04-29 11:56 | 54.55492 | 8.62528 | 3262 ft | 216 kts | 44° |
| 2026-04-29 11:57 | 54.56613 | 8.64336 | 3203 ft | 224 kts | 44° |
| 2026-04-29 11:57 | 54.57730 | 8.66150 | 3101 ft | 217 kts | 45° |
| 2026-04-29 11:57 | 54.58949 | 8.67671 | 3108 ft | 220 kts | 21° |
| 2026-04-29 11:57 | 54.60471 | 8.67916 | 3110 ft | 223 kts | 352° |
| 2026-04-29 11:58 | 54.61924 | 8.66950 | 3111 ft | 227 kts | 332° |
| 2026-04-29 11:58 | 54.63271 | 8.65493 | 3111 ft | 229 kts | 328° |
| 2026-04-29 11:58 | 54.64594 | 8.63968 | 3120 ft | 229 kts | 328° |
| 2026-04-29 11:58 | 54.65889 | 8.62447 | 3115 ft | 0 kts | 328° |
| 2026-04-29 11:59 | 54.73481 | 8.54260 | 3306 ft | 229 kts | 328° |
| 2026-04-29 11:59 | 54.74825 | 8.52681 | 3295 ft | 234 kts | 328° |
| 2026-04-29 11:59 | 54.78543 | 8.48638 | 3342 ft | 231 kts | 329° |
| 2026-04-29 11:59 | 54.79868 | 8.47114 | 3229 ft | 223 kts | 330° |
| 2026-04-29 12:00 | 54.81096 | 8.45674 | 2950 ft | 205 kts | 329° |
| 2026-04-29 12:00 | 54.82202 | 8.44436 | 2734 ft | 179 kts | 331° |
| 2026-04-29 12:00 | 54.83163 | 8.43393 | 2646 ft | 145 kts | 329° |
| 2026-04-29 12:00 | 54.83970 | 8.42429 | 2379 ft | 135 kts | 328° |
| 2026-04-29 12:01 | 54.84727 | 8.41505 | 2076 ft | 133 kts | 328° |
| 2026-04-29 12:01 | 54.85516 | 8.40578 | 1846 ft | 141 kts | 330° |
| 2026-04-29 12:01 | 54.86334 | 8.39676 | 1721 ft | 139 kts | 330° |
| 2026-04-29 12:01 | 54.87182 | 8.38789 | 1406 ft | 143 kts | 332° |
| 2026-04-29 12:02 | 54.88020 | 8.37886 | 1081 ft | 142 kts | 323° |
| 2026-04-29 12:02 | 54.88839 | 8.36977 | 790 ft | 140 kts | 330° |
| 2026-04-29 12:02 | 54.89670 | 8.36075 | 325 ft | 140 kts | 327° |
| 2026-04-29 12:02 | 54.90459 | 8.35107 | 66 ft | 136 kts | 323° |
| 2026-04-29 12:03 | 54.91133 | 8.34265 | 52 ft | 104 kts | 324° |
| 2026-04-29 12:03 | 54.91550 | 8.33771 | 43 ft | 35 kts | 326° |
| 2026-04-29 12:03 | 54.91672 | 8.33488 | 45 ft | 4 kts | 278° |
| 2026-04-29 12:03 | 54.91672 | 8.33487 | 45 ft | 0 kts | 278° |